Time,TemperatureF,DewpointF,PressureIn,WindDirection,WindDirectionDegrees,WindSpeedMPH,WindSpeedGustMPH,Humidity,HourlyPrecipIn,Conditions,Clouds,dailyrainin,SoftwareType,DateUTC
2013-05-16 00:05:00,50.5,49.0,29.64,West,265,0.0,0.0,95,0.00,,,0.00,weatherlink.com 1.10,2013-05-16 04:05:00,
2013-05-16 00:20:00,50.3,49.0,29.64,West,264,0.0,0.0,96,0.00,,,0.00,weatherlink.com 1.10,2013-05-16 04:20:00,
2013-05-16 00:35:00,50.0,49.0,29.64,West,265,0.0,1.0,96,0.00,,,0.00,weatherlink.com 1.10,2013-05-16 04:35:00,
2013-05-16 00:50:00,50.0,49.0,29.63,West,264,0.0,1.0,97,0.00,,,0.00,weatherlink.com 1.10,2013-05-16 04:50:00,
2013-05-16 01:05:00,50.0,49.0,29.63,West,264,0.0,1.0,97,0.00,,,0.00,weatherlink.com 1.10,2013-05-16 05:05:00,
2013-05-16 01:20:00,50.2,49.0,29.63,NW,308,0.0,1.0,97,0.00,,,0.00,weatherlink.com 1.10,2013-05-16 05:20:00,
2013-05-16 01:35:00,50.3,50.0,29.63,NW,308,0.0,1.0,97,0.00,,,0.00,weatherlink.com 1.10,2013-05-16 05:35:00,
2013-05-16 01:50:00,50.0,49.0,29.63,NW,308,0.0,0.0,97,0.00,,,0.00,weatherlink.com 1.10,2013-05-16 05:50:00,
2013-05-16 02:05:00,50.0,49.0,29.63,NW,308,0.0,0.0,97,0.00,,,0.00,weatherlink.com 1.10,2013-05-16 06:05:00,
2013-05-16 02:20:00,50.4,50.0,29.63,NW,308,0.0,0.0,97,0.00,,,0.00,weatherlink.com 1.10,2013-05-16 06:20:00,
2013-05-16 02:35:00,50.5,50.0,29.62,NW,308,0.0,0.0,97,0.00,,,0.00,weatherlink.com 1.10,2013-05-16 06:35:00,
2013-05-16 02:50:00,51.0,50.0,29.62,WSW,253,0.0,1.0,96,0.00,,,0.00,weatherlink.com 1.10,2013-05-16 06:50:00,
2013-05-16 03:05:00,51.5,50.0,29.62,WNW,289,0.0,2.0,95,0.00,,,0.00,weatherlink.com 1.10,2013-05-16 07:05:00,
2013-05-16 03:20:00,51.2,50.0,29.62,NW,310,0.0,2.0,94,0.00,,,0.00,weatherlink.com 1.10,2013-05-16 07:20:00,
2013-05-16 03:35:00,52.1,49.0,29.61,NW,309,0.0,1.0,88,0.00,,,0.00,weatherlink.com 1.10,2013-05-16 07:35:00,
2013-05-16 03:50:00,52.5,49.0,29.62,NW,309,0.0,0.0,86,0.00,,,0.00,weatherlink.com 1.10,2013-05-16 07:50:00,
2013-05-16 04:05:00,52.1,48.0,29.61,WNW,288,1.0,1.0,86,0.00,,,0.00,weatherlink.com 1.10,2013-05-16 08:05:00,
2013-05-16 04:20:00,51.8,48.0,29.62,WNW,288,0.0,0.0,87,0.00,,,0.00,weatherlink.com 1.10,2013-05-16 08:20:00,
2013-05-16 04:35:00,51.2,48.0,29.62,WNW,288,0.0,0.0,87,0.00,,,0.00,weatherlink.com 1.10,2013-05-16 08:35:00,
2013-05-16 04:50:00,50.5,47.0,29.62,WNW,288,0.0,1.0,88,0.00,,,0.00,weatherlink.com 1.10,2013-05-16 08:50:00,
2013-05-16 05:05:00,50.4,48.0,29.62,WNW,288,0.0,1.0,90,0.00,,,0.00,weatherlink.com 1.10,2013-05-16 09:05:00,
2013-05-16 05:20:00,50.0,48.0,29.63,WNW,288,0.0,1.0,91,0.00,,,0.00,weatherlink.com 1.10,2013-05-16 09:20:00,
2013-05-16 05:35:00,49.9,47.0,29.63,WNW,288,0.0,1.0,91,0.00,,,0.00,weatherlink.com 1.10,2013-05-16 09:35:00,
2013-05-16 05:50:00,49.7,47.0,29.63,WNW,288,0.0,1.0,90,0.00,,,0.00,weatherlink.com 1.10,2013-05-16 09:50:00,
2013-05-16 06:05:00,50.0,47.0,29.63,WNW,286,0.0,1.0,89,0.00,,,0.00,weatherlink.com 1.10,2013-05-16 10:05:00,
2013-05-16 06:20:00,50.9,47.0,29.63,WNW,286,0.0,0.0,86,0.00,,,0.00,weatherlink.com 1.10,2013-05-16 10:20:00,
2013-05-16 06:35:00,52.9,48.0,29.64,WNW,286,0.0,1.0,82,0.00,,,0.00,weatherlink.com 1.10,2013-05-16 10:35:00,
2013-05-16 06:50:00,55.0,48.0,29.64,NNE,33,0.0,1.0,78,0.00,,,0.00,weatherlink.com 1.10,2013-05-16 10:50:00,
2013-05-16 07:05:00,56.3,48.0,29.65,NW,317,0.0,0.0,73,0.00,,,0.00,weatherlink.com 1.10,2013-05-16 11:05:00,
2013-05-16 07:20:00,57.4,47.0,29.65,WNW,295,0.0,0.0,69,0.00,,,0.00,weatherlink.com 1.10,2013-05-16 11:20:00,
2013-05-16 07:36:00,58.8,47.0,29.65,NW,305,0.0,2.0,66,0.00,,,0.00,weatherlink.com 1.10,2013-05-16 11:36:00,
2013-05-16 07:51:00,59.9,47.0,29.65,NW,305,0.0,6.0,62,0.00,,,0.00,weatherlink.com 1.10,2013-05-16 11:51:00,
2013-05-16 08:06:00,61.3,46.0,29.65,NW,313,2.0,5.0,57,0.00,,,0.00,weatherlink.com 1.10,2013-05-16 12:06:00,
2013-05-16 08:21:00,62.4,46.0,29.65,NW,317,1.0,7.0,56,0.00,,,0.00,weatherlink.com 1.10,2013-05-16 12:21:00,
2013-05-16 08:36:00,63.7,45.0,29.66,WNW,298,1.0,3.0,51,0.00,,,0.00,weatherlink.com 1.10,2013-05-16 12:36:00,
2013-05-16 08:51:00,64.6,46.0,29.66,WNW,291,1.0,4.0,51,0.00,,,0.00,weatherlink.com 1.10,2013-05-16 12:51:00,
2013-05-16 09:21:00,67.3,43.0,29.66,WNW,294,1.0,8.0,42,0.00,,,0.00,weatherlink.com 1.10,2013-05-16 13:21:00,
2013-05-16 09:36:00,68.0,41.0,29.66,NW,319,2.0,13.0,38,0.00,,,0.00,weatherlink.com 1.10,2013-05-16 13:36:00,
2013-05-16 09:51:00,68.6,41.0,29.66,NW,324,4.0,10.0,37,0.00,,,0.00,weatherlink.com 1.10,2013-05-16 13:51:00,
2013-05-16 10:06:00,69.6,41.0,29.66,NNW,328,4.0,7.0,36,0.00,,,0.00,weatherlink.com 1.10,2013-05-16 14:06:00,
2013-05-16 10:21:00,71.2,40.0,29.66,ESE,112,2.0,8.0,32,0.00,,,0.00,weatherlink.com 1.10,2013-05-16 14:21:00,
2013-05-16 10:36:00,71.6,40.0,29.66,WNW,284,1.0,9.0,32,0.00,,,0.00,weatherlink.com 1.10,2013-05-16 14:36:00,
2013-05-16 10:51:00,71.8,38.0,29.66,WNW,297,2.0,8.0,29,0.00,,,0.00,weatherlink.com 1.10,2013-05-16 14:51:00,
2013-05-16 11:06:00,71.6,39.0,29.66,West,268,1.0,9.0,31,0.00,,,0.00,weatherlink.com 1.10,2013-05-16 15:06:00,
2013-05-16 11:21:00,71.6,39.0,29.66,West,279,1.0,8.0,30,0.00,,,0.00,weatherlink.com 1.10,2013-05-16 15:21:00,
2013-05-16 11:36:00,71.9,39.0,29.66,WNW,286,0.0,8.0,30,0.00,,,0.00,weatherlink.com 1.10,2013-05-16 15:36:00,
2013-05-16 11:51:00,72.1,37.0,29.65,NW,309,0.0,8.0,28,0.00,,,0.00,weatherlink.com 1.10,2013-05-16 15:51:00,
2013-05-16 12:06:00,73.7,38.0,29.64,NW,324,2.0,11.0,27,0.00,,,0.00,weatherlink.com 1.10,2013-05-16 16:06:00,
2013-05-16 12:21:00,74.4,32.0,29.64,West,277,4.0,18.0,21,0.00,,,0.00,weatherlink.com 1.10,2013-05-16 16:21:00,
2013-05-16 12:36:00,74.9,32.0,29.63,WNW,295,1.0,17.0,21,0.00,,,0.00,weatherlink.com 1.10,2013-05-16 16:36:00,
2013-05-16 12:52:00,75.3,33.0,29.63,NNW,331,7.0,10.0,21,0.00,,,0.00,weatherlink.com 1.10,2013-05-16 16:52:00,
2013-05-16 13:07:00,75.9,32.0,29.62,WNW,282,5.0,14.0,20,0.00,,,0.00,weatherlink.com 1.10,2013-05-16 17:07:00,
2013-05-16 13:22:00,75.9,34.0,29.62,NW,319,18.0,20.0,22,0.00,,,0.00,weatherlink.com 1.10,2013-05-16 17:22:00,
2013-05-16 13:37:00,76.2,33.0,29.62,WNW,292,3.0,20.0,21,0.00,,,0.00,weatherlink.com 1.10,2013-05-16 17:37:00,
2013-05-16 13:52:00,76.9,37.0,29.61,WNW,295,2.0,12.0,24,0.00,,,0.00,weatherlink.com 1.10,2013-05-16 17:52:00,
2013-05-16 14:08:00,77.5,36.0,29.61,NE,48,3.0,17.0,22,0.00,,,0.00,weatherlink.com 1.10,2013-05-16 18:08:00,
2013-05-16 14:22:00,77.6,36.0,29.61,WNW,303,3.0,25.0,22,0.00,,,0.00,weatherlink.com 1.10,2013-05-16 18:22:00,
2013-05-16 14:37:00,77.8,38.0,29.61,NW,324,8.0,16.0,24,0.00,,,0.00,weatherlink.com 1.10,2013-05-16 18:37:00,
2013-05-16 14:52:00,77.7,36.0,29.61,NW,318,9.0,16.0,22,0.00,,,0.00,weatherlink.com 1.10,2013-05-16 18:52:00,
2013-05-16 15:07:00,77.8,36.0,29.61,WNW,295,3.0,16.0,22,0.00,,,0.00,weatherlink.com 1.10,2013-05-16 19:07:00,
2013-05-16 15:22:00,77.7,37.0,29.61,WNW,292,11.0,18.0,23,0.00,,,0.00,weatherlink.com 1.10,2013-05-16 19:22:00,
2013-05-16 16:13:00,78.1,36.0,29.61,West,279,3.0,19.0,22,0.00,,,0.00,weatherlink.com 1.10,2013-05-16 20:13:00,
2013-05-16 16:22:00,78.3,35.0,29.61,NNW,329,8.0,17.0,21,0.00,,,0.00,weatherlink.com 1.10,2013-05-16 20:22:00,
2013-05-16 16:37:00,78.3,35.0,29.61,WNW,294,3.0,18.0,21,0.00,,,0.00,weatherlink.com 1.10,2013-05-16 20:37:00,
2013-05-16 16:52:00,78.6,34.0,29.60,NNW,328,15.0,17.0,20,0.00,,,0.00,weatherlink.com 1.10,2013-05-16 20:52:00,
2013-05-16 17:07:00,78.7,36.0,29.60,NW,310,5.0,18.0,21,0.00,,,0.00,weatherlink.com 1.10,2013-05-16 21:07:00,
2013-05-16 17:22:00,78.2,33.0,29.60,NNW,338,2.0,26.0,19,0.00,,,0.00,weatherlink.com 1.10,2013-05-16 21:22:00,
2013-05-16 17:37:00,78.3,31.0,29.61,NNW,336,4.0,16.0,18,0.00,,,0.00,weatherlink.com 1.10,2013-05-16 21:37:00,
2013-05-16 17:52:00,78.2,33.0,29.61,NW,317,8.0,17.0,19,0.00,,,0.00,weatherlink.com 1.10,2013-05-16 21:52:00,
2013-05-16 18:07:00,78.0,34.0,29.61,NW,311,7.0,9.0,20,0.00,,,0.00,weatherlink.com 1.10,2013-05-16 22:07:00,
2013-05-16 18:22:00,77.9,32.0,29.61,WNW,286,6.0,13.0,19,0.00,,,0.00,weatherlink.com 1.10,2013-05-16 22:22:00,
2013-05-16 18:37:00,76.8,31.0,29.61,NW,309,2.0,16.0,19,0.00,,,0.00,weatherlink.com 1.10,2013-05-16 22:37:00,
2013-05-16 18:52:00,76.3,31.0,29.62,NW,306,4.0,21.0,19,0.00,,,0.00,weatherlink.com 1.10,2013-05-16 22:52:00,
2013-05-16 19:07:00,75.8,31.0,29.63,NNW,331,10.0,14.0,19,0.00,,,0.00,weatherlink.com 1.10,2013-05-16 23:07:00,
2013-05-16 19:22:00,75.4,30.0,29.63,WNW,293,4.0,19.0,19,0.00,,,0.00,weatherlink.com 1.10,2013-05-16 23:22:00,
2013-05-16 19:37:00,75.1,29.0,29.64,NNW,333,9.0,14.0,18,0.00,,,0.00,weatherlink.com 1.10,2013-05-16 23:37:00,
2013-05-16 19:52:00,74.0,30.0,29.65,NW,306,3.0,8.0,20,0.00,,,0.00,weatherlink.com 1.10,2013-05-16 23:52:00,
2013-05-16 20:07:00,73.4,31.0,29.65,NW,319,3.0,13.0,21,0.00,,,0.00,weatherlink.com 1.10,2013-05-17 00:07:00,
2013-05-16 20:22:00,73.2,30.0,29.66,WNW,301,3.0,16.0,20,0.00,,,0.00,weatherlink.com 1.10,2013-05-17 00:22:00,
2013-05-16 20:37:00,72.5,29.0,29.67,NNW,331,6.0,12.0,20,0.00,,,0.00,weatherlink.com 1.10,2013-05-17 00:37:00,
2013-05-16 20:52:00,71.6,30.0,29.68,WNW,303,1.0,6.0,21,0.00,,,0.00,weatherlink.com 1.10,2013-05-17 00:52:00,
2013-05-16 21:07:00,70.7,31.0,29.70,NW,310,2.0,5.0,23,0.00,,,0.00,weatherlink.com 1.10,2013-05-17 01:07:00,
2013-05-16 21:22:00,70.1,31.0,29.70,WNW,292,2.0,7.0,23,0.00,,,0.00,weatherlink.com 1.10,2013-05-17 01:22:00,
2013-05-16 21:37:00,70.1,29.0,29.71,NW,322,7.0,15.0,22,0.00,,,0.00,weatherlink.com 1.10,2013-05-17 01:37:00,
2013-05-16 21:52:00,70.1,29.0,29.71,WNW,293,4.0,10.0,22,0.00,,,0.00,weatherlink.com 1.10,2013-05-17 01:52:00,
2013-05-16 22:08:00,69.9,28.0,29.71,NW,324,5.0,15.0,21,0.00,,,0.00,weatherlink.com 1.10,2013-05-17 02:08:00,
2013-05-16 22:23:00,69.2,29.0,29.71,NNW,328,3.0,10.0,22,0.00,,,0.00,weatherlink.com 1.10,2013-05-17 02:23:00,
2013-05-16 22:38:00,68.5,29.0,29.73,NW,312,0.0,7.0,23,0.00,,,0.00,weatherlink.com 1.10,2013-05-17 02:38:00,
2013-05-16 22:54:00,66.2,37.0,29.75,NW,317,5.0,9.0,34,0.00,,,0.00,weatherlink.com 1.10,2013-05-17 02:54:00,
2013-05-16 23:08:00,63.8,40.0,29.76,West,265,2.0,7.0,42,0.00,,,0.00,weatherlink.com 1.10,2013-05-17 03:08:00,
2013-05-16 23:23:00,62.0,41.0,29.78,West,262,1.0,8.0,46,0.00,,,0.00,weatherlink.com 1.10,2013-05-17 03:23:00,
2013-05-16 23:38:00,60.4,41.0,29.79,NW,309,1.0,8.0,50,0.00,,,0.00,weatherlink.com 1.10,2013-05-17 03:38:00,
2013-05-16 23:53:00,59.2,41.0,29.79,WNW,298,1.0,6.0,52,0.00,,,0.00,weatherlink.com 1.10,2013-05-17 03:53:00,